Latest Weather Observations for Mount Read

IDT60801

Issued at 2:05 pm EST Wednesday 3 September 2014 (issued every 30 minutes, with the page automatically refreshed every 10 minutes)

About weather observations | Map of weather stations | Latest weather observations for TAS | Other Formats
Station Details ID: 097085 Name: MOUNT READ Lat: -41.84 Lon: 145.54 Height: 1119.5 m
Data from the previous 72 hours. | See also: Recent months at Mount Read
Date/Time
EST
Temp
°C
App
Temp
°C
Dew
Point
Rel
Hum
%
Delta-T
°C
Wind Press
QNH
hPa
Press
MSL
hPa
Rain
since 9 am
mm
Dir
 
Spd
km/h
Gust
km/h
Spd
kts
Gust
kts
03/02:00pm 3.3 -1.0 3.2 99 0.0 SSW 15 19 8 10 1017.9 1019.8 0.0
03/01:30pm 3.7 0.2 3.6 99 0.0 SSW 11 17 6 9 1018.1 1020.0 0.0
03/01:00pm 4.0 1.3 3.9 99 0.0 S 7 9 4 5 1018.2 1020.1 0.0
03/12:30pm 3.9 0.5 3.8 99 0.0 S 11 22 6 12 1018.5 1020.3 0.0
03/12:00pm 3.1 -0.5 3.0 99 0.0 S 11 15 6 8 1018.9 1020.8 0.0
03/11:30am 3.2 0.0 3.1 99 0.0 S 9 13 5 7 1019.1 1021.0 0.0
03/11:00am 2.3 -1.4 2.2 99 0.0 S 11 15 6 8 1019.3 1021.3 0.0
03/10:30am 2.6 -1.5 2.5 99 0.0 S 13 19 7 10 1019.6 1021.5 0.0
03/10:00am 1.9 -2.3 1.8 99 0.0 SSW 13 17 7 9 1019.8 1021.7 0.0
03/09:30am 1.6 -3.4 1.5 99 0.0 SSW 17 22 9 12 1019.7 1021.6 0.0
03/09:00am 1.1 -4.0 1.0 99 0.0 SSW 17 20 9 11 1019.7 1021.6 3.8
03/08:30am 0.6 -5.1 0.5 99 0.0 SSW 20 28 11 15 1019.3 1021.3 3.8
03/08:00am 0.1 -6.1 0.0 99 0.0 S 22 26 12 14 1019.1 1021.0 3.8
03/07:30am 0.0 -6.2 -0.1 99 0.0 S 22 28 12 15 1018.9 1020.8 3.6
03/07:00am 0.0 -2.0 -0.1 99 0.0 CALM 0 0 0 0 1018.8 1020.7 3.6
03/06:30am -0.1 -2.1 -0.2 99 0.0 CALM 0 0 0 0 1018.6 1020.5 3.6
03/06:00am -0.2 -2.2 -0.3 99 0.0 S 0 0 0 0 1018.6 1020.5 3.6
03/05:30am -0.2 -2.2 -0.3 99 0.0 CALM 0 0 0 0 1018.6 1020.5 3.6
03/05:00am -0.2 -2.2 -0.3 99 0.0 CALM 0 0 0 0 1018.6 1020.5 3.6
03/04:30am -0.3 -2.3 -0.4 99 0.0 CALM 0 0 0 0 1018.5 1020.3 3.6
03/04:00am -0.3 -2.3 -0.4 99 0.0 CALM 0 0 0 0 1018.5 1020.3 3.6
03/03:30am -0.4 -2.5 -0.5 99 0.0 CALM 0 0 0 0 1018.5 1020.3 3.6
03/03:00am -0.5 -2.6 -0.6 99 0.0 CALM 0 0 0 0 1018.3 1020.2 3.6
03/02:30am -0.8 -2.9 -0.9 99 0.0 CALM 0 0 0 0 1018.7 1020.6 3.6
03/02:00am -1.0 -3.1 -1.1 99 0.0 CALM 0 0 0 0 1019.0 1020.9 3.6
03/01:30am -0.9 -3.0 -1.0 99 0.0 CALM 0 0 0 0 1019.2 1021.1 3.6
03/01:00am -1.0 -3.1 -1.1 99 0.0 CALM 0 0 0 0 1019.1 1021.0 3.6
03/12:30am -1.4 -3.6 -1.5 99 0.0 CALM 0 0 0 0 1018.9 1020.8 3.6
03/12:00am -1.6 -3.8 -1.7 99 0.0 S 0 0 0 0 1018.9 1020.8 3.6
 
Date/Time
EST
Temp
°C
App
Temp
°C
Dew
Point
Rel
Hum
%
Delta-T
°C
Wind Press
QNH
hPa
Press
MSL
hPa
Rain
since 9 am
mm
Dir
 
Spd
km/h
Gust
km/h
Spd
kts
Gust
kts
02/11:30pm -1.5 -3.7 -1.6 99 0.0 CALM 0 0 0 0 1018.9 1020.8 3.6
02/11:00pm -1.4 -3.6 -1.5 99 0.0 CALM 0 0 0 0 1019.0 1020.9 3.6
02/10:30pm -1.6 -3.8 -1.7 99 0.0 CALM 0 0 0 0 1019.0 1020.9 3.6
02/10:00pm -1.6 -3.8 -1.7 99 0.0 CALM 0 0 0 0 1018.9 1020.8 3.6
02/09:30pm -1.3 -3.5 -1.4 99 0.0 CALM 0 0 0 0 1018.8 1020.7 3.6
02/09:00pm -1.1 -3.3 -1.2 99 0.0 CALM 0 0 0 0 1018.8 1020.7 3.6
02/08:30pm -1.0 -3.1 -1.1 99 0.0 CALM 0 0 0 0 1018.6 1020.5 3.6
02/08:00pm -0.3 -7.3 -0.4 99 0.0 S 26 32 14 17 1018.6 1020.5 3.6
02/07:30pm -0.3 -7.3 -0.4 99 0.0 S 26 32 14 17 1018.3 1020.2 3.6
02/07:00pm -0.2 -7.9 -0.3 99 0.0 S 30 37 16 20 1017.9 1019.8 3.6
02/06:30pm -0.1 -8.2 -0.2 99 0.0 S 32 41 17 22 1017.7 1019.5 3.6
02/06:00pm -0.1 -8.8 -0.2 99 0.0 S 35 44 19 24 1017.2 1019.1 3.6
02/05:30pm -0.1 -10.3 -0.2 99 0.0 S 43 50 23 27 1016.8 1018.6 3.6
02/05:00pm -0.1 -11.2 -0.2 99 0.0 S 48 57 26 31 1016.4 1018.3 3.2
02/04:30pm 0.1 -9.3 0.0 99 0.0 SSW 39 50 21 27 1016.3 1018.2 3.0
02/04:00pm 0.6 -8.0 0.5 99 0.0 SSW 35 44 19 24 1016.3 1018.2 2.6
02/03:30pm 0.3 -7.0 0.2 99 0.0 SSW 28 35 15 19 1016.3 1018.2 2.2
02/03:00pm 0.2 -7.1 0.1 99 0.0 SW 28 33 15 18 1016.2 1018.1 1.6
02/02:30pm 0.9 -6.3 0.8 99 0.0 SW 28 33 15 18 1016.2 1018.1 0.8
02/02:00pm 1.5 -5.6 1.4 99 0.0 SSW 28 35 15 19 1016.1 1017.9 0.4
02/01:30pm 0.0 -8.1 -0.1 99 0.0 SSW 32 39 17 21 1016.0 1017.8 0.4
02/01:00pm 2.2 -5.7 1.3 94 0.4 SSW 32 39 17 21 1016.1 1017.9 0.0
02/12:30pm 1.5 -7.0 0.6 94 0.4 SSW 35 46 19 25 1016.1 1017.9 0.0
02/12:00pm 1.6 -6.5 1.3 98 0.1 SSW 33 43 18 23 1016.3 1018.2 0.0
02/11:30am 1.0 -7.0 0.7 98 0.1 SSW 32 41 17 22 1016.3 1018.2 0.0
02/11:00am 1.2 -5.9 1.1 99 0.0 SSW 28 32 15 17 1016.3 1018.2 0.0
02/10:30am 0.3 -7.4 0.2 99 0.0 S 30 39 16 21 1016.2 1018.1 0.0
02/10:00am 0.4 -7.2 0.3 99 0.0 S 30 37 16 20 1016.0 1017.8 0.0
02/09:30am -0.1 -7.8 -0.2 99 0.0 S 30 37 16 20 1015.7 1017.5 0.0
02/09:00am -0.7 -8.9 -0.8 99 0.0 S 32 39 17 21 1015.3 1017.1 13.8
02/08:30am -0.9 -9.1 -1.0 99 0.0 S 32 37 17 20 1015.0 1016.8 13.6
02/08:00am -1.2 -9.6 -1.3 99 0.0 S 33 39 18 21 1014.8 1016.6 13.6
02/07:30am -1.5 -10.4 -1.6 99 0.0 S 35 39 19 21 1014.2 1016.0 13.6
02/07:00am -1.5 -10.0 -1.6 99 0.0 S 33 39 18 21 1013.8 1015.5 13.6
02/06:30am -1.5 -9.8 -1.6 99 0.0 S 32 35 17 19 1013.3 1015.1 13.6
02/06:00am -1.4 -8.9 -1.5 99 0.0 S 28 33 15 18 1013.0 1014.7 13.6
02/05:30am -1.1 -8.6 -1.2 99 0.0 S 28 32 15 17 1012.5 1014.3 13.6
02/05:00am -0.9 -9.1 -1.0 99 0.0 S 32 37 17 20 1012.0 1013.7 13.6
02/04:30am -0.3 -7.7 -0.4 99 0.0 S 28 33 15 18 1011.6 1013.4 13.6
02/04:00am -0.3 -8.4 -0.4 99 0.0 S 32 37 17 20 1011.2 1012.9 13.6
02/03:30am -0.3 -7.7 -0.4 99 0.0 S 28 35 15 19 1010.9 1012.6 13.6
02/03:00am -0.5 -8.6 -0.6 99 0.0 S 32 37 17 20 1010.6 1012.3 13.6
02/02:30am -0.3 -8.6 -0.4 99 0.0 S 33 37 18 20 1010.3 1012.0 13.4
02/02:00am -0.2 -9.3 -0.3 99 0.0 S 37 44 20 24 1010.0 1011.6 13.4
02/01:30am -0.4 -9.5 -0.5 99 0.0 S 37 43 20 23 1009.8 1011.4 13.4
02/01:00am -0.1 -9.1 -0.2 99 0.0 S 37 44 20 24 1009.4 1011.1 13.4
02/12:30am 0.2 -8.8 0.1 99 0.0 S 37 44 20 24 1009.3 1010.9 13.4
02/12:00am 0.3 -7.7 0.2 99 0.0 S 32 41 17 22 1009.2 1010.8 13.4
 
Date/Time
EST
Temp
°C
App
Temp
°C
Dew
Point
Rel
Hum
%
Delta-T
°C
Wind Press
QNH
hPa
Press
MSL
hPa
Rain
since 9 am
mm
Dir
 
Spd
km/h
Gust
km/h
Spd
kts
Gust
kts
01/11:30pm 0.7 -7.3 0.6 99 0.0 S 32 39 17 21 1009.1 1010.7 13.4
01/11:00pm 0.3 -8.7 0.2 99 0.0 S 37 43 20 23 1008.5 1010.1 13.4
01/10:30pm 0.6 -7.6 0.5 99 0.0 S 33 41 18 22 1008.2 1009.8 13.4
01/10:00pm 0.8 -7.3 0.7 99 0.0 S 33 39 18 21 1008.2 1009.8 13.2
01/09:30pm 1.1 -7.8 1.0 99 0.0 S 37 43 20 23 1008.0 1009.6 13.2
01/09:00pm 1.1 -7.8 1.0 99 0.0 S 37 44 20 24 1007.7 1009.3 13.2
01/08:30pm 1.1 -7.4 1.0 99 0.0 S 35 41 19 22 1007.4 1009.0 13.2
01/08:00pm 0.4 -8.9 0.3 99 0.0 S 39 43 21 23 1006.9 1008.4 13.2
01/07:30pm 0.5 -8.5 0.4 99 0.0 S 37 43 20 23 1006.2 1007.7 13.2
01/07:00pm 1.0 -8.6 0.9 99 0.0 S 41 46 22 25 1005.6 1007.2 13.2
01/06:30pm 1.4 -9.5 1.3 99 0.0 S 48 54 26 29 1005.3 1006.8 13.0
01/06:00pm 1.5 -9.0 1.4 99 0.0 S 46 54 25 29 1004.7 1006.2 13.0
01/05:30pm 1.4 -9.9 1.3 99 0.0 S 50 57 27 31 1004.2 1005.7 13.0
01/05:00pm 2.0 -8.0 1.9 99 0.0 S 44 54 24 29 1004.2 1005.7 13.0
01/04:30pm 2.2 -7.8 2.1 99 0.0 SSW 44 54 24 29 1003.5 1005.0 13.0
01/04:00pm 2.5 -9.0 2.4 99 0.0 S 52 63 28 34 1002.6 1004.1 13.0
01/03:30pm 2.4 -8.3 2.3 99 0.0 SSW 48 61 26 33 1002.6 1004.1 13.0
01/03:00pm 2.8 -6.9 2.7 99 0.0 SSW 43 54 23 29 1002.5 1004.0 12.4
01/02:30pm 2.4 -7.4 2.3 99 0.0 SSW 43 57 23 31 1002.2 1003.6 12.0
01/02:00pm 3.5 -4.0 3.4 99 0.0 SSW 32 43 17 23 1002.2 1003.6 11.4
01/01:30pm 3.5 -3.6 3.4 99 0.0 SSW 30 41 16 22 1002.3 1003.7 10.4
01/01:00pm 4.0 -2.7 3.9 99 0.0 SW 28 37 15 20 1002.4 1003.8 9.6
01/12:30pm 4.0 -3.6 3.9 99 0.0 SW 33 43 18 23 1002.4 1003.8 8.8
01/12:00pm 4.2 -0.7 4.1 99 0.0 W 19 28 10 15 1002.8 1004.3 8.0
01/11:30am 4.2 -1.7 4.1 99 0.0 W 24 33 13 18 1002.5 1004.0 7.0
01/11:06am 4.1 -2.5 4.0 99 0.0 W 28 52 15 28 1002.4 1003.8 6.8
01/11:00am 4.2 -1.7 4.1 99 0.0 W 24 37 13 20 1002.6 1004.1 6.6
01/10:30am 4.2 -2.4 4.1 99 0.0 W 28 41 15 22 1002.5 1004.0 6.6
01/10:01am 5.2 -1.6 5.1 99 0.0 NNW 30 52 16 28 1002.2 1003.6 3.8
01/10:00am 5.2 -1.6 5.1 99 0.0 NNW 30 48 16 26 1002.2 1003.6 3.8
01/09:30am 5.5 -2.6 5.4 99 0.0 N 37 56 20 30 1001.6 1003.5 2.6
01/09:05am 5.5 -2.2 5.4 99 0.0 N 35 56 19 30 1001.7 1003.6 0.2
01/09:00am 5.5 -2.9 5.4 99 0.0 N 39 56 21 30 1001.8 1003.7 13.8
01/08:30am 5.4 -3.8 5.3 99 0.0 N 43 61 23 33 1001.7 1003.6 13.4
01/08:00am 5.4 -3.8 5.3 99 0.0 N 43 69 23 37 1001.6 1003.5 13.4
01/07:30am 5.4 -3.8 5.3 99 0.0 N 43 65 23 35 1001.9 1003.8 11.2
01/07:15am 5.4 -4.0 5.3 99 0.0 N 44 69 24 37 1001.8 1003.7 11.0
01/07:00am 5.4 -4.0 5.3 99 0.0 N 44 61 24 33 1001.8 1003.7 10.0
01/06:30am 5.6 -3.8 5.5 99 0.0 N 44 65 24 35 1002.3 1004.1 8.6
01/06:10am 5.5 -2.6 5.4 99 0.0 N 37 57 20 31 1002.8 1004.7 8.0
01/06:00am 5.4 -2.3 5.3 99 0.0 N 35 44 19 24 1003.1 1004.9 8.0
01/05:30am 5.6 -2.1 5.5 99 0.0 N 35 54 19 29 1003.4 1005.3 7.2
01/05:00am 5.7 -2.3 5.6 99 0.0 N 37 48 20 26 1003.7 1005.6 2.8
01/04:35am 5.7 -3.5 5.6 99 0.0 N 43 61 23 33 1003.7 1005.6 2.6
01/04:30am 5.7 -3.7 5.6 99 0.0 N 44 61 24 33 1003.7 1005.6 2.6
01/04:00am 5.8 -3.3 5.7 99 0.0 N 43 61 23 33 1004.1 1006.0 1.4
01/03:53am 5.8 -3.3 5.7 99 0.0 N 43 61 23 33 1004.0 1005.9 1.2
01/03:30am 5.9 -2.5 5.8 99 0.0 N 39 54 21 29 1004.5 1006.4 1.0
01/03:24am 5.9 -2.8 5.8 99 0.0 N 41 59 22 32 1004.7 1006.7 1.0
01/03:00am 5.8 -3.0 5.7 99 0.0 N 41 56 22 30 1005.0 1006.9 0.2
01/02:33am 5.6 -3.8 5.5 99 0.0 N 44 65 24 35 1005.3 1007.2 0.0
01/02:30am 5.6 -3.8 5.5 99 0.0 N 44 59 24 32 1005.4 1007.4 0.0
01/02:11am 5.6 -3.8 5.5 99 0.0 N 44 65 24 35 1005.5 1007.5 0.0
01/02:00am 5.6 -3.6 5.5 99 0.0 N 43 56 23 30 1005.7 1007.7 0.0
01/01:46am 5.6 -4.2 5.5 99 0.0 N 46 67 25 36 1005.6 1007.6 0.0
01/01:30am 5.7 -4.0 5.6 99 0.0 N 46 59 25 32 1006.0 1007.9 0.0
01/01:00am 5.6 -3.6 5.5 99 0.0 N 43 63 23 34 1006.4 1008.4 0.0
01/12:40am 5.5 -3.7 5.4 99 0.0 N 43 61 23 33 1006.5 1008.5 0.0
01/12:30am 5.5 -3.9 5.4 99 0.0 N 44 59 24 32 1006.4 1008.4 0.0
01/12:00am 5.4 -4.4 5.3 99 0.0 N 46 63 25 34 1006.6 1008.6 0.0
 
Date/Time
EST
Temp
°C
App
Temp
°C
Dew
Point
Rel
Hum
%
Delta-T
°C
Wind Press
QNH
hPa
Press
MSL
hPa
Rain
since 9 am
mm
Dir
 
Spd
km/h
Gust
km/h
Spd
kts
Gust
kts
31/11:37pm 5.4 -4.8 5.3 99 0.0 N 48 67 26 36 1007.0 1009.0 0.0
31/11:30pm 5.4 -5.2 5.3 99 0.0 N 50 61 27 33 1007.0 1009.0 0.0
31/11:00pm 5.5 -5.4 5.4 99 0.0 N 52 63 28 34 1007.3 1009.3 0.0
31/10:44pm 5.3 -4.0 5.2 99 0.0 N 43 61 23 33 1008.2 1010.2 0.0
31/10:30pm 5.3 -4.1 5.2 99 0.0 N 44 61 24 33 1008.2 1010.2 0.0
31/10:13pm 5.3 -3.2 5.2 99 0.0 N 39 59 21 32 1008.4 1010.4 0.0
31/10:00pm 5.3 -2.8 5.2 99 0.0 N 37 54 20 29 1008.5 1010.6 0.0
31/09:30pm 5.2 -3.7 5.1 99 0.0 N 41 56 22 30 1008.9 1010.9 0.0
31/09:00pm 5.1 -3.8 5.0 99 0.0 N 41 56 22 30 1009.2 1011.2 0.0
31/08:30pm 4.9 -3.3 4.8 99 0.0 N 37 48 20 26 1009.5 1011.6 0.0
31/08:00pm 5.1 -3.4 5.0 99 0.0 N 39 48 21 26 1009.8 1011.8 0.0
31/07:30pm 5.2 -3.7 5.1 99 0.0 N 41 54 22 29 1009.9 1011.9 0.0
31/07:00pm 5.4 -3.8 5.3 99 0.0 N 43 52 23 28 1010.1 1012.2 0.0
31/06:30pm 5.3 -3.6 5.2 99 0.0 N 41 50 22 27 1010.3 1012.4 0.0
31/06:00pm 5.6 -3.2 5.5 99 0.0 N 41 48 22 26 1010.4 1012.5 0.0
31/05:30pm 5.7 -2.3 5.6 99 0.0 N 37 44 20 24 1010.6 1012.7 0.0
31/05:00pm 6.1 -1.1 6.0 99 0.0 N 33 41 18 22 1010.9 1013.0 0.0
31/04:30pm 6.3 -1.2 6.2 99 0.0 N 35 43 19 23 1010.9 1013.0 0.0
31/04:00pm 6.5 -1.4 6.4 99 0.0 N 37 46 20 25 1011.1 1013.2 0.0
31/03:30pm 6.3 -1.6 6.2 99 0.0 N 37 43 20 23 1011.4 1013.5 0.0
31/03:00pm 6.5 -1.0 6.4 99 0.0 N 35 41 19 22 1012.1 1014.2 0.0
31/02:30pm 6.7 -1.1 6.6 99 0.0 N 37 44 20 24 1012.4 1014.6 0.0

Other Formats:

Comma delimited format used in spreadsheet applications
http://www.bom.gov.au/fwo/IDT60801/IDT60801.95952.axf

JavaScript Object Notation format (JSON) in row-major order
http://www.bom.gov.au/fwo/IDT60801/IDT60801.95952.json